createdAt,value
2022-08-20T00:02:07.601Z,100406.94
2022-08-20T00:04:33.987Z,100395.78
2022-08-20T00:07:00.310Z,100403.34
2022-08-20T00:09:26.753Z,100391.84
2022-08-20T00:11:56.327Z,100394.19
2022-08-20T00:14:22.764Z,100388.34
2022-08-20T00:16:49.117Z,100378.75
2022-08-20T00:19:15.485Z,100387.19
2022-08-20T00:21:41.801Z,100388.75
2022-08-20T00:24:08.443Z,100386.03
2022-08-20T00:26:34.873Z,100387.28
2022-08-20T00:29:04.086Z,100385.75
2022-08-20T00:31:30.411Z,100391.25
2022-08-20T00:33:56.766Z,100387.91
2022-08-20T00:36:32.325Z,100394.91
2022-08-20T00:39:00.177Z,100398.13
2022-08-20T00:41:27.350Z,100402.41
2022-08-20T00:44:12.239Z,100400.63
2022-08-20T00:46:39.891Z,100406.94
2022-08-20T00:49:08.696Z,100409.13
2022-08-20T00:51:43.605Z,100413.41
2022-08-20T00:54:18.691Z,100412.50
2022-08-20T00:56:49.351Z,100406.47
2022-08-20T00:59:20.782Z,100408.41
2022-08-20T01:01:56.147Z,100410.75
2022-08-20T01:04:27.701Z,100413.53
2022-08-20T01:06:54.859Z,100422.53
2022-08-20T01:09:49.675Z,100415.91
2022-08-20T01:12:09.680Z,100426.13
2022-08-20T01:14:36.070Z,100428.53
2022-08-20T01:17:06.947Z,100432.53
2022-08-20T01:19:41.207Z,100435.66
2022-08-20T01:22:08.992Z,100435.59
2022-08-20T01:24:39.570Z,100432.31
2022-08-20T01:27:06.736Z,100441.69
2022-08-20T01:29:39.610Z,100439.19
2022-08-20T01:32:06.963Z,100431.38
2022-08-20T01:34:33.301Z,100436.53
2022-08-20T01:36:59.715Z,100439.53
2022-08-20T01:39:33.851Z,100437.28
2022-08-20T01:42:18.083Z,100436.81
2022-08-20T01:44:46.201Z,100438.50
2022-08-20T01:47:23.843Z,100435.44
2022-08-20T01:49:53.731Z,100448.13
2022-08-20T01:52:36.545Z,100439.38
2022-08-20T01:55:04.436Z,100438.50
2022-08-20T01:57:30.938Z,100438.56
2022-08-20T01:59:57.292Z,100437.16
2022-08-20T02:02:25.679Z,100435.44
2022-08-20T02:04:52.035Z,100436.44
2022-08-20T02:07:21.998Z,100435.25
2022-08-20T02:09:49.310Z,100439.88
2022-08-20T02:12:16.346Z,100430.47
2022-08-20T02:14:53.941Z,100433.56
2022-08-20T02:17:22.930Z,100432.63
2022-08-20T02:19:55.199Z,100444.31
2022-08-20T02:22:29.676Z,100434.78
2022-08-20T02:24:56.155Z,100443.00
2022-08-20T02:27:22.517Z,100432.69
2022-08-20T02:29:49.791Z,100442.13
2022-08-20T02:32:32.538Z,100437.84
2022-08-20T02:35:03.017Z,100443.72
2022-08-20T02:37:29.580Z,100439.81
2022-08-20T02:39:55.985Z,100447.56
2022-08-20T02:42:22.409Z,100435.75
2022-08-20T02:44:48.743Z,100433.78
2022-08-20T02:47:15.176Z,100432.91
2022-08-20T02:49:41.512Z,100434.25
2022-08-20T02:52:08.176Z,100435.41
2022-08-20T02:54:34.535Z,100443.84
2022-08-20T02:57:00.890Z,100436.75
2022-08-20T02:59:27.220Z,100436.22
2022-08-20T03:02:00.260Z,100441.56
2022-08-20T03:04:29.266Z,100441.22
2022-08-20T03:06:56.281Z,100439.00
2022-08-20T03:09:22.711Z,100443.72
2022-08-20T03:11:49.067Z,100445.84
2022-08-20T03:14:15.409Z,100441.41
2022-08-20T03:16:41.723Z,100446.53
2022-08-20T03:19:08.058Z,100442.88
2022-08-20T03:21:34.388Z,100436.50
2022-08-20T03:24:00.813Z,100437.66
2022-08-20T03:26:27.150Z,100439.97
2022-08-20T03:28:53.494Z,100442.00
2022-08-20T03:31:19.847Z,100447.38
2022-08-20T03:33:52.329Z,100449.44
2022-08-20T03:36:20.831Z,100451.94
2022-08-20T03:38:55.328Z,100453.78
2022-08-20T03:41:21.809Z,100451.31
2022-08-20T03:43:48.180Z,100460.63
2022-08-20T03:46:23.095Z,100460.81
2022-08-20T03:48:50.772Z,100462.69
2022-08-20T03:51:26.006Z,100465.34
2022-08-20T03:53:52.399Z,100465.34
2022-08-20T03:56:18.744Z,100466.88
2022-08-20T03:58:45.098Z,100471.13
2022-08-20T04:01:37.101Z,100471.13
2022-08-20T04:03:57.763Z,100472.88
2022-08-20T04:06:24.835Z,100472.88
2022-08-20T04:08:51.170Z,100471.44
2022-08-20T04:11:17.510Z,100468.03
2022-08-20T04:13:43.858Z,100469.84
2022-08-20T04:16:13.442Z,100470.00
2022-08-20T04:18:41.482Z,100473.53
2022-08-20T04:21:22.539Z,100474.81
2022-08-20T04:23:49.254Z,100479.59
2022-08-20T04:26:15.600Z,100476.97
2022-08-20T04:28:42.201Z,100478.81
2022-08-20T04:31:08.540Z,100481.03
2022-08-20T04:33:35.410Z,100486.69
2022-08-20T04:36:03.648Z,100490.63
2022-08-20T04:38:47.628Z,100487.84
2022-08-20T04:41:22.509Z,100487.06
2022-08-20T04:43:51.739Z,100489.66
2022-08-20T04:46:18.267Z,100491.06
2022-08-20T04:48:48.731Z,100498.31
2022-08-20T04:51:15.598Z,100495.91
2022-08-20T04:53:42.640Z,100499.16
2022-08-20T04:56:09.071Z,100505.94
2022-08-20T04:58:39.068Z,100503.56
2022-08-20T05:01:09.178Z,100514.06
2022-08-20T05:03:37.677Z,100511.56
2022-08-20T05:06:06.119Z,100507.13
2022-08-20T05:08:33.862Z,100510.50
2022-08-20T05:11:35.012Z,100503.22
2022-08-20T05:13:46.571Z,100513.00
2022-08-20T05:16:13.219Z,100510.22
2022-08-20T05:18:39.576Z,100504.56
2022-08-20T05:21:06.186Z,100500.47
2022-08-20T05:23:38.217Z,100510.22
2022-08-20T05:26:04.706Z,100514.06
2022-08-20T05:28:32.020Z,100517.00
2022-08-20T05:31:00.864Z,100524.81
2022-08-20T05:33:29.889Z,100521.25
2022-08-20T05:35:57.392Z,100527.38
2022-08-20T05:38:27.481Z,100530.94
2022-08-20T05:40:53.877Z,100528.03
2022-08-20T05:43:20.939Z,100530.41
2022-08-20T05:45:50.066Z,100519.84
2022-08-20T05:48:21.467Z,100530.75
2022-08-20T05:50:50.175Z,100533.50
2022-08-20T05:53:18.694Z,100540.69
2022-08-20T05:55:45.711Z,100538.47
2022-08-20T05:58:19.248Z,100546.56
2022-08-20T06:00:45.658Z,100536.44
2022-08-20T06:03:12.063Z,100540.50
2022-08-20T06:05:38.410Z,100540.88
2022-08-20T06:08:09.417Z,100539.44
2022-08-20T06:10:37.023Z,100540.03
2022-08-20T06:13:04.493Z,100541.53
2022-08-20T06:15:31.757Z,100540.88
2022-08-20T06:17:58.765Z,100537.03
2022-08-20T06:20:25.719Z,100530.16
2022-08-20T06:22:52.092Z,100539.66
2022-08-20T06:25:18.706Z,100541.59
2022-08-20T06:27:45.065Z,100537.78
2022-08-20T06:30:14.961Z,100529.28
2022-08-20T06:32:41.738Z,100532.94
2022-08-20T06:35:10.469Z,100532.94
2022-08-20T06:37:39.176Z,100536.41
2022-08-20T06:40:18.340Z,100537.94
2022-08-20T06:42:48.623Z,100545.28
2022-08-20T06:45:18.774Z,100537.59
2022-08-20T06:47:47.174Z,100536.00
2022-08-20T06:50:19.662Z,100536.75
2022-08-20T06:52:52.791Z,100545.69
2022-08-20T06:55:20.443Z,100537.41
2022-08-20T06:57:46.880Z,100544.91
2022-08-20T07:00:18.052Z,100541.69
2022-08-20T07:02:44.471Z,100542.69
2022-08-20T07:05:10.837Z,100540.31
2022-08-20T07:07:37.339Z,100538.94
2022-08-20T07:10:07.454Z,100547.16
2022-08-20T07:12:33.978Z,100548.66
2022-08-20T07:15:00.514Z,100542.94
2022-08-20T07:17:26.900Z,100544.81
2022-08-20T07:19:53.242Z,100549.91
2022-08-20T07:22:19.714Z,100562.13
2022-08-20T07:24:49.087Z,100558.56
2022-08-20T07:27:20.844Z,100563.59
2022-08-20T07:29:47.202Z,100559.97
2022-08-20T07:32:13.622Z,100561.97
2022-08-20T07:34:41.061Z,100556.91
2022-08-20T07:37:11.079Z,100559.09
2022-08-20T07:39:37.467Z,100558.22
2022-08-20T07:42:05.617Z,100562.44
2022-08-20T07:44:32.010Z,100574.75
2022-08-20T07:46:59.077Z,100574.25
2022-08-20T07:49:25.622Z,100573.63
2022-08-20T07:51:52.199Z,100573.91
2022-08-20T07:54:18.526Z,100575.66
2022-08-20T07:56:44.884Z,100574.13
2022-08-20T07:59:11.222Z,100567.25
2022-08-20T08:01:37.548Z,100574.13
2022-08-20T08:04:04.365Z,100576.81
2022-08-20T08:06:31.874Z,100576.91
2022-08-20T08:09:04.770Z,100580.88
2022-08-20T08:11:34.239Z,100579.00
2022-08-20T08:14:01.153Z,100579.47
2022-08-20T08:16:29.020Z,100577.66
2022-08-20T08:18:55.762Z,100575.28
2022-08-20T08:21:22.350Z,100573.41
2022-08-20T08:23:48.811Z,100577.69
2022-08-20T08:26:18.762Z,100583.47
2022-08-20T08:28:46.688Z,100583.63
2022-08-20T08:31:13.962Z,100579.69
2022-08-20T08:33:40.961Z,100588.34
2022-08-20T08:36:11.829Z,100595.66
2022-08-20T08:38:40.870Z,100598.75
2022-08-20T08:41:17.506Z,100593.66
2022-08-20T08:43:46.239Z,100593.13
2022-08-20T08:46:15.246Z,100593.09
2022-08-20T08:48:44.155Z,100587.28
2022-08-20T08:51:15.152Z,100588.97
2022-08-20T08:53:46.774Z,100604.41
2022-08-20T08:56:15.225Z,100604.69
2022-08-20T08:58:42.973Z,100612.41
2022-08-20T09:01:13.762Z,100611.75
2022-08-20T09:03:59.379Z,100609.19
2022-08-20T09:06:26.457Z,100604.31
2022-08-20T09:08:56.553Z,100612.31
2022-08-20T09:11:24.229Z,100619.28
2022-08-20T09:13:52.036Z,100624.09
2022-08-20T09:16:18.460Z,100622.00
2022-08-20T09:18:44.947Z,100628.69
2022-08-20T09:21:11.519Z,100622.31
2022-08-20T09:23:38.300Z,100617.16
2022-08-20T09:26:04.698Z,100618.44
2022-08-20T09:28:32.523Z,100614.44
2022-08-20T09:31:02.760Z,100619.06
2022-08-20T09:33:30.926Z,100614.50
2022-08-20T09:35:57.260Z,100618.69
2022-08-20T09:38:23.987Z,100619.81
2022-08-20T09:40:50.594Z,100621.44
2022-08-20T09:43:16.949Z,100618.13
2022-08-20T09:45:43.330Z,100625.78
2022-08-20T09:48:10.299Z,100626.44
2022-08-20T09:50:37.330Z,100626.13
2022-08-20T09:53:05.455Z,100624.34
2022-08-20T09:55:39.961Z,100615.41
2022-08-20T09:58:17.001Z,100622.50
2022-08-20T10:00:43.390Z,100619.53
2022-08-20T10:03:09.730Z,100608.13
2022-08-20T10:05:36.102Z,100606.56
2022-08-20T10:08:07.604Z,100619.88
2022-08-20T10:10:34.543Z,100620.06
2022-08-20T10:13:01.277Z,100625.03
2022-08-20T10:15:28.641Z,100628.50
2022-08-20T10:17:55.027Z,100626.19
2022-08-20T10:20:21.738Z,100619.72
2022-08-20T10:22:48.065Z,100621.44
2022-08-20T10:25:14.551Z,100615.03
2022-08-20T10:27:40.886Z,100612.38
2022-08-20T10:30:08.065Z,100618.63
2022-08-20T10:32:34.577Z,100615.25
2022-08-20T10:35:01.113Z,100609.63
2022-08-20T10:37:28.195Z,100610.25
2022-08-20T10:39:55.029Z,100610.13
2022-08-20T10:42:21.532Z,100609.41
2022-08-20T10:44:47.876Z,100610.91
2022-08-20T10:47:18.904Z,100611.63
2022-08-20T10:49:45.523Z,100618.53
2022-08-20T10:52:11.868Z,100616.84
2022-08-20T10:54:38.603Z,100614.25
2022-08-20T10:57:05.230Z,100614.41
2022-08-20T10:59:31.563Z,100612.69
2022-08-20T11:01:57.977Z,100608.53
2022-08-20T11:04:24.376Z,100607.63
2022-08-20T11:06:50.727Z,100615.91
2022-08-20T11:09:17.060Z,100616.09
2022-08-20T11:11:43.409Z,100599.78
2022-08-20T11:14:09.781Z,100615.25
2022-08-20T11:16:36.119Z,100617.47
2022-08-20T11:19:02.504Z,100625.59
2022-08-20T11:21:28.822Z,100629.06
2022-08-20T11:23:55.170Z,100625.31
2022-08-20T11:26:24.710Z,100621.31
2022-08-20T11:28:51.079Z,100625.31
2022-08-20T11:31:17.437Z,100627.03
2022-08-20T11:33:43.789Z,100625.19
2022-08-20T11:36:10.159Z,100627.59
2022-08-20T11:38:36.515Z,100632.69
2022-08-20T11:41:02.849Z,100632.16
2022-08-20T11:43:29.203Z,100630.56
2022-08-20T11:45:56.265Z,100629.53
2022-08-20T11:48:22.802Z,100622.59
2022-08-20T11:50:50.772Z,100622.13
2022-08-20T11:53:17.329Z,100630.53
2022-08-20T11:55:44.040Z,100623.78
2022-08-20T11:58:11.063Z,100627.84
2022-08-20T12:00:37.451Z,100620.81
2022-08-20T12:03:09.272Z,100610.00
2022-08-20T12:05:37.638Z,100615.28
2022-08-20T12:08:04.276Z,100613.03
2022-08-20T12:10:31.334Z,100619.03
2022-08-20T12:12:57.962Z,100617.44
2022-08-20T12:15:24.620Z,100622.38
2022-08-20T12:17:51.005Z,100632.53
2022-08-20T12:20:17.412Z,100628.72
2022-08-20T12:22:43.826Z,100620.06
2022-08-20T12:25:10.675Z,100627.31
2022-08-20T12:27:37.824Z,100623.16
2022-08-20T12:30:13.925Z,100615.06
2022-08-20T12:32:40.878Z,100618.69
2022-08-20T12:35:08.712Z,100600.78
2022-08-20T12:37:35.823Z,100617.41
2022-08-20T12:40:07.141Z,100621.06
2022-08-20T12:42:33.753Z,100617.09
2022-08-20T12:45:00.918Z,100602.94
2022-08-20T12:47:33.323Z,100615.34
2022-08-20T12:50:17.231Z,100614.38
2022-08-20T12:52:44.813Z,100617.28
2022-08-20T12:55:14.062Z,100605.75
2022-08-20T12:57:43.649Z,100606.38
2022-08-20T13:00:13.422Z,100605.59
2022-08-20T13:02:40.032Z,100603.94
2022-08-20T13:05:11.320Z,100605.44
2022-08-20T13:07:38.653Z,100609.03
2022-08-20T13:10:07.503Z,100604.97
2022-08-20T13:12:34.319Z,100606.97
2022-08-20T13:15:00.774Z,100599.16
2022-08-20T13:17:38.967Z,100591.88
2022-08-20T13:20:16.780Z,100594.59
2022-08-20T13:22:44.311Z,100601.19
2022-08-20T13:25:15.127Z,100594.00
2022-08-20T13:27:42.474Z,100597.91
2022-08-20T13:30:13.378Z,100592.44
2022-08-20T13:32:41.036Z,100577.47
2022-08-20T13:35:08.330Z,100576.81
2022-08-20T13:37:34.888Z,100750.63
2022-08-20T13:40:01.848Z,100571.22
2022-08-20T13:42:28.353Z,100579.94
2022-08-20T13:44:54.793Z,100575.72
2022-08-20T13:47:29.819Z,100582.34
2022-08-20T13:49:58.002Z,100589.16
2022-08-20T13:52:25.950Z,100586.94
2022-08-20T13:54:52.681Z,100585.50
2022-08-20T13:57:21.256Z,100585.38
2022-08-20T13:59:50.482Z,100587.72
2022-08-20T14:02:17.903Z,100583.09
2022-08-20T14:04:44.702Z,100592.72
2022-08-20T14:07:13.130Z,100587.66
2022-08-20T14:09:44.444Z,100578.16
2022-08-20T14:12:12.030Z,100585.25
2022-08-20T14:14:38.623Z,100593.16
2022-08-20T14:17:18.641Z,100583.69
2022-08-20T14:19:47.093Z,100596.25
2022-08-20T14:22:13.838Z,100600.06
2022-08-20T14:24:40.315Z,100589.22
2022-08-20T14:27:08.598Z,100601.41
2022-08-20T14:29:37.451Z,100594.34
2022-08-20T14:32:05.154Z,100599.63
2022-08-20T14:34:31.929Z,100603.34
2022-08-20T14:37:13.835Z,100603.91
2022-08-20T14:39:41.214Z,100604.78
2022-08-20T14:42:07.966Z,100611.03
2022-08-20T14:44:34.476Z,100609.50
2022-08-20T14:47:10.839Z,100609.66
2022-08-20T14:49:37.288Z,100624.28
2022-08-20T14:52:03.989Z,100607.09
2022-08-20T14:54:30.366Z,100616.69
2022-08-20T14:57:01.949Z,100611.72
2022-08-20T14:59:28.846Z,100607.75
2022-08-20T15:01:55.221Z,100619.47
2022-08-20T15:04:23.700Z,100628.22
2022-08-20T15:06:52.753Z,100623.50
2022-08-20T15:09:21.423Z,100630.31
2022-08-20T15:11:47.826Z,100634.25
2022-08-20T15:14:15.076Z,100634.56
2022-08-20T15:16:44.931Z,100636.06
2022-08-20T15:19:11.301Z,100635.78
2022-08-20T15:21:45.240Z,100635.09
2022-08-20T15:24:18.841Z,100635.91
2022-08-20T15:26:46.500Z,100641.03
2022-08-20T15:29:22.717Z,100640.41
2022-08-20T15:31:49.491Z,100636.97
2022-08-20T15:34:18.136Z,100649.75
2022-08-20T15:36:45.210Z,100644.22
2022-08-20T15:39:11.574Z,100639.38
2022-08-20T15:41:37.942Z,100645.63
2022-08-20T15:44:04.623Z,100644.09
2022-08-20T15:46:36.153Z,100643.09
2022-08-20T15:49:11.087Z,100635.91
2022-08-20T15:51:47.544Z,100628.75
2022-08-20T15:54:20.305Z,100636.72
2022-08-20T15:57:11.461Z,100637.75
2022-08-20T15:59:54.543Z,100636.66
2022-08-20T16:02:42.790Z,100634.34
2022-08-20T16:05:25.488Z,100637.75
2022-08-20T16:07:56.274Z,100637.91
2022-08-20T16:10:26.900Z,100636.16
2022-08-20T16:12:57.666Z,100632.84
2022-08-20T16:15:30.020Z,100637.56
2022-08-20T16:18:07.502Z,100635.84
2022-08-20T16:20:48.000Z,100638.81
2022-08-20T16:23:20.184Z,100644.94
2022-08-20T16:26:24.429Z,100642.06
2022-08-20T16:29:10.003Z,100646.06
2022-08-20T16:31:47.155Z,100645.31
2022-08-20T16:34:34.440Z,100643.78
2022-08-20T16:37:22.689Z,100647.03
2022-08-20T16:39:59.056Z,100656.16
2022-08-20T16:42:33.147Z,100649.78
2022-08-20T16:45:00.674Z,100649.88
2022-08-20T16:47:31.029Z,100648.66
2022-08-20T16:50:08.890Z,100653.41
2022-08-20T16:52:35.310Z,100660.53
2022-08-20T16:55:01.743Z,100666.75
2022-08-20T16:57:29.922Z,100666.03
2022-08-20T17:00:11.989Z,100663.66
2022-08-20T17:03:01.626Z,100662.88
2022-08-20T17:05:47.526Z,100661.78
2022-08-20T17:08:28.871Z,100658.53
2022-08-20T17:11:01.052Z,100663.22
2022-08-20T17:13:31.365Z,100663.44
2022-08-20T17:16:01.669Z,100664.31
2022-08-20T17:18:36.999Z,100661.34
2022-08-20T17:21:12.549Z,100660.28
2022-08-20T17:23:55.592Z,100659.53
2022-08-20T17:26:31.254Z,100660.16
2022-08-20T17:29:00.828Z,100664.91
2022-08-20T17:31:40.177Z,100666.25
2022-08-20T17:34:28.647Z,100659.88
2022-08-20T17:37:08.147Z,100670.03
2022-08-20T17:39:34.669Z,100664.91
2022-08-20T17:42:09.070Z,100661.28
2022-08-20T17:44:42.227Z,100657.16
2022-08-20T17:47:14.127Z,100662.19
2022-08-20T17:50:00.494Z,100661.78
2022-08-20T17:52:44.074Z,100668.78
2022-08-20T17:55:12.396Z,100660.28
2022-08-20T17:57:42.957Z,100665.38
2022-08-20T18:00:14.760Z,100662.34
2022-08-20T18:02:42.654Z,100666.03
2022-08-20T18:05:15.935Z,100669.66
2022-08-20T18:08:04.844Z,100671.94
2022-08-20T18:10:42.174Z,100676.69
2022-08-20T18:13:19.475Z,100667.06
2022-08-20T18:15:58.265Z,100671.13
2022-08-20T18:18:56.521Z,100679.34
2022-08-20T18:21:50.172Z,100681.44
2022-08-20T18:24:36.313Z,100678.38
2022-08-20T18:27:09.226Z,100678.88
2022-08-20T18:29:40.975Z,100678.50
2022-08-20T18:32:20.464Z,100690.75
2022-08-20T18:34:46.853Z,100695.38
2022-08-20T18:37:13.096Z,100692.63
2022-08-20T18:39:45.172Z,100695.22
2022-08-20T18:42:17.287Z,100695.38
2022-08-20T18:44:45.940Z,100693.69
2022-08-20T18:47:23.137Z,100697.19
2022-08-20T18:50:16.678Z,100696.34
2022-08-20T18:52:49.821Z,100708.69
2022-08-20T18:55:42.746Z,100703.81
2022-08-20T18:58:33.545Z,100714.16
2022-08-20T19:01:03.362Z,100712.56
2022-08-20T19:03:35.994Z,100711.91
2022-08-20T19:06:08.693Z,100719.63
2022-08-20T19:08:51.174Z,100725.44
2022-08-20T19:11:50.110Z,100727.84
2022-08-20T19:14:21.891Z,100726.84
2022-08-20T19:16:59.838Z,100719.03
2022-08-20T19:19:32.215Z,100729.13
2022-08-20T19:22:00.911Z,100723.97
2022-08-20T19:24:31.291Z,100723.19
2022-08-20T19:27:04.654Z,100729.59
2022-08-20T19:29:37.015Z,100721.25
2022-08-20T19:32:08.490Z,100730.75
2022-08-20T19:34:36.577Z,100721.13
2022-08-20T19:37:34.739Z,100719.63
2022-08-20T19:39:56.891Z,100718.81
2022-08-20T19:42:40.482Z,100712.53
2022-08-20T19:45:12.236Z,100717.81
2022-08-20T19:48:04.538Z,100719.28
2022-08-20T19:50:57.407Z,100713.31
2022-08-20T19:53:32.614Z,100725.47
2022-08-20T19:56:10.717Z,100734.28
2022-08-20T19:58:37.392Z,100730.88
2022-08-20T20:01:09.017Z,100731.38
2022-08-20T20:03:37.281Z,100724.06
2022-08-20T20:06:16.770Z,100724.72
2022-08-20T20:08:57.913Z,100719.91
2022-08-20T20:11:29.887Z,100715.28
2022-08-20T20:14:05.114Z,100720.66
2022-08-20T20:16:32.802Z,100720.19
2022-08-20T20:19:24.611Z,100721.81
2022-08-20T20:21:50.118Z,100724.88
2022-08-20T20:24:29.326Z,100724.09
2022-08-20T20:26:59.129Z,100719.59
2022-08-20T20:29:28.484Z,100713.84
2022-08-20T20:31:57.624Z,100722.75
2022-08-20T20:34:56.182Z,100722.94
2022-08-20T20:37:49.474Z,100722.44
2022-08-20T20:40:30.949Z,100721.34
2022-08-20T20:43:10.636Z,100719.78
2022-08-20T20:45:41.827Z,100719.34
2022-08-20T20:48:20.858Z,100717.34
2022-08-20T20:50:48.489Z,100713.78
2022-08-20T20:53:25.619Z,100715.38
2022-08-20T20:56:25.970Z,100725.66
2022-08-20T20:58:55.641Z,100722.31
2022-08-20T21:01:27.273Z,100725.00
2022-08-20T21:04:09.106Z,100715.66
2022-08-20T21:06:35.495Z,100713.50
2022-08-20T21:09:02.130Z,100717.91
2022-08-20T21:11:28.450Z,100714.25
2022-08-20T21:13:54.842Z,100721.34
2022-08-20T21:16:21.223Z,100714.91
2022-08-20T21:18:47.652Z,100715.19
2022-08-20T21:21:14.499Z,100726.94
2022-08-20T21:23:41.662Z,100721.34
2022-08-20T21:26:08.746Z,100718.25
2022-08-20T21:28:35.235Z,100728.06
2022-08-20T21:31:01.767Z,100725.19
2022-08-20T21:33:28.116Z,100721.16
2022-08-20T21:35:54.516Z,100716.88
2022-08-20T21:38:20.863Z,100716.63
2022-08-20T21:40:47.283Z,100713.56
2022-08-20T21:43:13.846Z,100714.41
2022-08-20T21:45:41.043Z,100723.59
2022-08-20T21:48:10.542Z,100732.31
2022-08-20T21:50:37.122Z,100724.13
2022-08-20T21:53:12.352Z,100726.47
2022-08-20T21:55:40.476Z,100741.13
2022-08-20T21:58:07.690Z,100733.22
2022-08-20T22:00:55.857Z,100726.19
2022-08-20T22:03:28.746Z,100738.56
2022-08-20T22:05:58.297Z,100735.19
2022-08-20T22:08:28.370Z,100731.34
2022-08-20T22:10:56.136Z,100731.81
2022-08-20T22:13:23.938Z,100729.56
2022-08-20T22:15:50.346Z,100726.50
2022-08-20T22:18:17.152Z,100728.44
2022-08-20T22:20:43.847Z,100727.66
2022-08-20T22:23:10.823Z,100726.38
2022-08-20T22:25:37.223Z,100728.63
2022-08-20T22:28:03.892Z,100732.81
2022-08-20T22:30:30.356Z,100732.00
2022-08-20T22:33:07.717Z,100730.22
2022-08-20T22:35:34.603Z,100730.06
2022-08-20T22:38:01.163Z,100730.38
2022-08-20T22:40:27.511Z,100729.44
2022-08-20T22:42:53.909Z,100732.66
2022-08-20T22:45:20.356Z,100728.63
2022-08-20T22:47:46.854Z,100727.50
2022-08-20T22:50:14.842Z,100723.31
2022-08-20T22:52:41.396Z,100721.72
2022-08-20T22:55:09.450Z,100725.41
2022-08-20T22:57:37.108Z,100728.44
2022-08-20T23:00:07.914Z,100728.44
2022-08-20T23:02:34.642Z,100730.88
2022-08-20T23:05:01.021Z,100727.50
2022-08-20T23:07:27.729Z,100720.88
2022-08-20T23:09:54.075Z,100723.47
2022-08-20T23:12:20.453Z,100728.16
2022-08-20T23:14:46.798Z,100720.88
2022-08-20T23:17:17.242Z,100723.16
2022-08-20T23:19:44.622Z,100722.34
2022-08-20T23:22:11.534Z,100714.63
2022-08-20T23:24:38.079Z,100713.50
2022-08-20T23:27:08.194Z,100717.69
2022-08-20T23:29:34.970Z,100708.16
2022-08-20T23:32:01.743Z,100710.09
2022-08-20T23:34:28.166Z,100711.72
2022-08-20T23:36:55.984Z,100708.19
2022-08-20T23:39:23.421Z,100703.66
2022-08-20T23:41:49.773Z,100709.94
2022-08-20T23:44:26.138Z,100703.69
2022-08-20T23:46:58.744Z,100701.28
2022-08-20T23:49:26.108Z,100698.69
2022-08-20T23:51:52.596Z,100699.50
2022-08-20T23:54:18.962Z,100699.34
2022-08-20T23:56:45.418Z,100703.34
2022-08-20T23:59:11.818Z,100702.38
